首页
METAR-TAF:

METAR-TAF

机场 :

Hay River, 西北特區, 加拿大

纬度: 60-50N, 经度: 115-47W, 海拔: 164米

当前天气观测

该预报发布于1小时和7分钟前的01:00 UTC
风速2节,风向多变
温度 -16°C
湿度 84%
气压 1022 hPa
能見度: 24.1公里
阴天层高于1400英尺
小雪

METAR: CYHY 200100Z VRB02KT 15SM -SN OVC014 M16/M18 A3017 RMK SC8 SLP240

时间: 19:07 (02:07 UTC)

预报

该预报发布于2小时和20分钟前的23:47 UTC
预报有效从20日的 00点(UTC)到 20日的 12点(UTC)
风速5节,风向西转西南
能見度: 10公里
阴天层高于1200英尺
小雪

TAF: CYHY 192347Z 2000/2012 25005KT P6SM -SN OVC012 RMK NXT FCST BY 200600Z

超过4000个机场的气象观测和天气预报(METAR&TAF报告)。

可查询的气象台以黄色和红色小点在地图上表示。

将鼠标移到小点上方,可查看气象台名称。

然后点击查看天气观测和预报。

如需切换地图:点击带黑十字的绿色按钮放大地图;点击带横线的绿色按钮缩小地图;或者点击绿色箭头查看邻近地区的地图。


METAR-TAF: